createdAt,value
2023-02-11T00:03:02.017Z,53.03
2023-02-11T00:06:09.357Z,54.67
2023-02-11T00:09:11.709Z,57.08
2023-02-11T00:12:13.893Z,56.45
2023-02-11T00:15:16.377Z,57.50
2023-02-11T00:18:18.760Z,52.55
2023-02-11T00:21:24.681Z,53.83
2023-02-11T00:24:26.690Z,51.05
2023-02-11T00:27:28.723Z,52.35
2023-02-11T00:30:30.795Z,48.15
2023-02-11T00:33:33.007Z,48.85
2023-02-11T00:36:35.081Z,53.05
2023-02-11T00:39:37.252Z,54.10
2023-02-11T00:42:39.213Z,50.95
2023-02-11T00:45:41.286Z,52.85
2023-02-11T00:48:44.101Z,54.00
2023-02-11T00:51:46.136Z,51.55
2023-02-11T00:54:48.193Z,53.25
2023-02-11T00:57:50.933Z,53.90
2023-02-11T01:00:55.099Z,45.65
2023-02-11T01:03:57.190Z,47.10
2023-02-11T01:07:00.104Z,42.88
2023-02-11T01:10:02.258Z,43.33
2023-02-11T01:13:06.670Z,43.45
2023-02-11T01:16:11.008Z,43.65
2023-02-11T01:19:13.329Z,41.90
2023-02-11T01:22:15.480Z,41.08
2023-02-11T01:25:17.533Z,41.42
2023-02-11T01:28:21.742Z,43.35
2023-02-11T01:31:23.919Z,42.78
2023-02-11T01:34:25.991Z,44.22
2023-02-11T01:37:28.504Z,41.10
2023-02-11T01:40:30.563Z,42.30
2023-02-11T01:43:39.646Z,45.88
2023-02-11T01:46:41.755Z,47.00
2023-02-11T01:49:52.707Z,48.00
2023-02-11T01:53:15.853Z,47.20
2023-02-11T01:56:39.740Z,45.15
2023-02-11T01:59:59.728Z,40.90
2023-02-11T02:03:22.703Z,41.88
2023-02-11T02:06:37.518Z,41.25
2023-02-11T02:09:46.819Z,40.05
2023-02-11T02:12:49.791Z,39.42
2023-02-11T02:16:02.855Z,39.33
2023-02-11T02:19:26.110Z,37.65
2023-02-11T02:22:46.470Z,38.60
2023-02-11T02:26:15.705Z,39.17
2023-02-11T02:29:20.758Z,40.03
2023-02-11T02:32:44.903Z,38.63
2023-02-11T02:35:57.942Z,39.80
2023-02-11T02:39:27.782Z,38.53
2023-02-11T02:42:30.706Z,37.30
2023-02-11T02:45:33.766Z,36.38
2023-02-11T02:48:35.875Z,37.38
2023-02-11T02:51:56.740Z,35.30
2023-02-11T02:55:22.428Z,35.90
2023-02-11T02:58:54.562Z,33.30
2023-02-11T03:02:12.042Z,34.47
2023-02-11T03:05:28.874Z,34.47
2023-02-11T03:08:56.805Z,35.97
2023-02-11T03:12:02.236Z,34.72
2023-02-11T03:15:06.852Z,36.92
2023-02-11T03:18:13.766Z,37.15
2023-02-11T03:21:18.592Z,37.30
2023-02-11T03:24:36.543Z,31.67
2023-02-11T03:27:54.413Z,34.45
2023-02-11T03:31:17.744Z,32.90
2023-02-11T03:34:27.470Z,34.25
2023-02-11T03:37:32.870Z,33.33
2023-02-11T03:40:40.346Z,33.40
2023-02-11T03:43:46.498Z,34.00
2023-02-11T03:46:51.151Z,33.00
2023-02-11T03:49:55.656Z,31.27
2023-02-11T03:53:02.428Z,30.67
2023-02-11T03:56:08.512Z,32.63
2023-02-11T03:59:10.515Z,31.95
2023-02-11T04:02:12.609Z,30.77
2023-02-11T04:05:16.449Z,33.08
2023-02-11T04:08:18.684Z,30.42
2023-02-11T04:11:20.692Z,30.75
2023-02-11T04:14:22.698Z,28.45
2023-02-11T04:17:24.902Z,27.25
2023-02-11T04:20:27.180Z,24.00
2023-02-11T04:23:29.300Z,24.05
2023-02-11T04:26:31.606Z,23.60
2023-02-11T04:29:33.623Z,24.65
2023-02-11T04:32:35.700Z,23.65
2023-02-11T04:35:37.774Z,23.70
2023-02-11T04:38:39.779Z,23.75
2023-02-11T04:41:41.800Z,26.63
2023-02-11T04:44:43.858Z,26.67
2023-02-11T04:47:45.930Z,25.77
2023-02-11T04:50:47.918Z,26.35
2023-02-11T04:53:49.941Z,29.48
2023-02-11T04:56:52.051Z,28.98
2023-02-11T04:59:54.420Z,27.65
2023-02-11T05:02:56.567Z,27.85
2023-02-11T05:05:58.737Z,28.58
2023-02-11T05:09:00.751Z,29.38
2023-02-11T05:12:02.780Z,29.27
2023-02-11T05:15:05.669Z,29.98
2023-02-11T05:18:08.104Z,30.45
2023-02-11T05:21:13.038Z,30.77
2023-02-11T05:24:14.965Z,32.05
2023-02-11T05:27:17.118Z,34.55
2023-02-11T05:30:19.239Z,34.47
2023-02-11T05:33:21.307Z,34.53
2023-02-11T05:36:23.913Z,31.85
2023-02-11T05:39:28.915Z,32.05
2023-02-11T05:42:30.971Z,31.40
2023-02-11T05:45:33.391Z,33.95
2023-02-11T05:48:35.378Z,33.58
2023-02-11T05:51:37.472Z,34.05
2023-02-11T05:54:39.609Z,34.20
2023-02-11T05:57:41.682Z,31.25
2023-02-11T06:00:43.730Z,32.60
2023-02-11T06:03:45.926Z,33.75
2023-02-11T06:06:47.916Z,34.25
2023-02-11T06:09:49.912Z,33.63
2023-02-11T06:12:51.977Z,32.67
2023-02-11T06:15:58.597Z,34.63
2023-02-11T06:19:00.641Z,33.10
2023-02-11T06:22:02.663Z,34.90
2023-02-11T06:25:05.399Z,31.70
2023-02-11T06:28:07.723Z,33.17
2023-02-11T06:31:10.648Z,35.40
2023-02-11T06:34:12.891Z,36.17
2023-02-11T06:37:14.882Z,37.17
2023-02-11T06:40:16.939Z,36.03
2023-02-11T06:43:19.138Z,36.50
2023-02-11T06:46:22.109Z,35.20
2023-02-11T06:49:24.255Z,34.28
2023-02-11T06:52:26.390Z,36.03
2023-02-11T06:55:28.465Z,36.28
2023-02-11T06:58:30.572Z,36.00
2023-02-11T07:01:32.743Z,39.83
2023-02-11T07:04:34.769Z,38.92
2023-02-11T07:07:37.283Z,40.17
2023-02-11T07:10:40.968Z,40.67
2023-02-11T07:13:44.038Z,40.42
2023-02-11T07:16:46.089Z,44.45
2023-02-11T07:19:48.325Z,40.45
2023-02-11T07:22:50.391Z,42.03
2023-02-11T07:25:52.818Z,42.10
2023-02-11T07:28:55.356Z,41.55
2023-02-11T07:31:57.541Z,41.30
2023-02-11T07:34:59.697Z,43.70
2023-02-11T07:38:02.100Z,40.53
2023-02-11T07:41:06.462Z,41.17
2023-02-11T07:44:10.458Z,43.60
2023-02-11T07:47:12.506Z,42.45
2023-02-11T07:50:14.670Z,39.17
2023-02-11T07:53:17.584Z,40.42
2023-02-11T07:56:20.750Z,40.83
2023-02-11T07:59:24.961Z,43.20
2023-02-11T08:02:27.140Z,37.40
2023-02-11T08:05:30.527Z,36.45
2023-02-11T08:08:32.851Z,34.20
2023-02-11T08:11:35.474Z,30.88
2023-02-11T08:14:37.914Z,30.70
2023-02-11T08:17:39.985Z,31.00
2023-02-11T08:20:42.152Z,28.00
2023-02-11T08:23:45.309Z,25.42
2023-02-11T08:26:47.462Z,26.02
2023-02-11T08:29:49.505Z,23.80
2023-02-11T08:32:54.094Z,23.27
2023-02-11T08:35:56.147Z,23.10
2023-02-11T08:39:16.104Z,24.42
2023-02-11T08:42:24.522Z,19.75
2023-02-11T08:45:28.056Z,21.90
2023-02-11T08:48:31.511Z,21.27
2023-02-11T08:51:33.606Z,21.65
2023-02-11T08:54:35.510Z,20.35
2023-02-11T08:57:37.565Z,22.42
2023-02-11T09:00:39.563Z,20.60
2023-02-11T09:03:41.817Z,18.75
2023-02-11T09:06:44.183Z,18.58
2023-02-11T09:09:46.118Z,16.65
2023-02-11T09:12:48.084Z,11.90
2023-02-11T09:15:50.051Z,17.92
2023-02-11T09:18:53.212Z,17.77
2023-02-11T09:21:55.338Z,16.17
2023-02-11T09:24:57.415Z,18.85
2023-02-11T09:27:59.399Z,14.23
2023-02-11T09:31:06.837Z,15.55
2023-02-11T09:34:08.978Z,13.88
2023-02-11T09:37:12.169Z,13.57
2023-02-11T09:40:16.526Z,13.80
2023-02-11T09:43:22.819Z,14.27
2023-02-11T09:46:34.191Z,13.20
2023-02-11T09:49:54.022Z,14.52
2023-02-11T09:53:07.673Z,14.52
2023-02-11T09:56:15.439Z,14.48
2023-02-11T09:59:18.962Z,13.77
2023-02-11T10:02:43.265Z,13.48
2023-02-11T10:06:16.311Z,14.38
2023-02-11T10:09:37.965Z,14.55
2023-02-11T10:13:24.410Z,15.07
2023-02-11T10:16:55.156Z,15.45
2023-02-11T10:20:09.127Z,12.93
2023-02-11T10:23:20.598Z,12.70
2023-02-11T10:26:23.762Z,13.30
2023-02-11T10:29:43.968Z,12.63
2023-02-11T10:32:54.537Z,13.85
2023-02-11T10:35:58.013Z,13.73
2023-02-11T10:39:02.343Z,13.52
2023-02-11T10:42:11.002Z,12.95
2023-02-11T10:48:41.235Z,13.32
2023-02-11T10:51:45.349Z,12.68
2023-02-11T10:54:58.384Z,12.63
2023-02-11T10:58:02.975Z,12.27
2023-02-11T11:01:19.014Z,11.68
2023-02-11T11:04:33.762Z,12.88
2023-02-11T11:07:37.543Z,12.38
2023-02-11T11:10:54.492Z,12.82
2023-02-11T11:14:07.318Z,12.82
2023-02-11T11:17:20.600Z,13.15
2023-02-11T11:20:30.245Z,12.60
2023-02-11T11:23:37.632Z,13.07
2023-02-11T11:26:44.803Z,12.57
2023-02-11T11:29:52.080Z,11.88
2023-02-11T11:32:56.799Z,12.82
2023-02-11T11:36:20.503Z,12.77
2023-02-11T11:39:29.722Z,12.25
2023-02-11T11:42:34.052Z,14.80
2023-02-11T11:45:36.129Z,12.30
2023-02-11T11:48:40.461Z,11.27
2023-02-11T11:51:52.544Z,12.80
2023-02-11T11:55:05.096Z,12.25
2023-02-11T11:58:16.718Z,12.43
2023-02-11T12:01:37.521Z,14.15
2023-02-11T12:04:58.089Z,10.98
2023-02-11T12:08:08.144Z,11.00
2023-02-11T12:11:24.910Z,9.95
2023-02-11T12:14:38.879Z,10.82
2023-02-11T12:17:51.037Z,10.23
2023-02-11T12:21:17.695Z,9.63
2023-02-11T12:24:41.210Z,9.15
2023-02-11T12:27:48.116Z,10.40
2023-02-11T12:31:08.015Z,10.27
2023-02-11T12:34:10.863Z,9.93
2023-02-11T12:37:58.427Z,10.27
2023-02-11T12:41:03.782Z,9.43
2023-02-11T12:44:12.310Z,9.55
2023-02-11T12:47:53.303Z,10.07
2023-02-11T12:51:06.029Z,8.63
2023-02-11T12:54:11.038Z,10.32
2023-02-11T12:57:26.712Z,8.82
2023-02-11T13:00:34.468Z,9.43
2023-02-11T13:03:47.770Z,10.18
2023-02-11T13:06:56.065Z,8.80
2023-02-11T13:10:05.923Z,10.13
2023-02-11T13:13:20.045Z,9.65
2023-02-11T13:16:35.577Z,10.15
2023-02-11T13:19:46.118Z,10.07
2023-02-11T13:23:31.566Z,12.95
2023-02-11T13:26:47.783Z,12.20
2023-02-11T13:29:59.086Z,11.70
2023-02-11T13:33:05.110Z,12.40
2023-02-11T13:36:07.048Z,11.48
2023-02-11T13:39:21.212Z,13.60
2023-02-11T13:42:23.508Z,10.77
2023-02-11T13:45:30.443Z,11.60
2023-02-11T13:48:37.540Z,11.45
2023-02-11T13:51:42.976Z,11.15
2023-02-11T13:54:51.489Z,11.85
2023-02-11T13:58:08.720Z,10.77
2023-02-11T14:01:10.954Z,11.40
2023-02-11T14:04:43.262Z,10.38
2023-02-11T14:08:29.158Z,12.45
2023-02-11T14:11:41.002Z,11.63
2023-02-11T14:15:07.991Z,10.38
2023-02-11T14:18:47.399Z,11.73
2023-02-11T14:21:49.883Z,10.57
2023-02-11T14:24:52.031Z,11.48
2023-02-11T14:27:58.411Z,10.90
2023-02-11T14:31:12.829Z,10.43
2023-02-11T14:34:21.536Z,11.05
2023-02-11T14:37:32.165Z,11.25
2023-02-11T14:41:15.409Z,10.48
2023-02-11T14:44:27.845Z,11.90
2023-02-11T14:47:37.616Z,11.25
2023-02-11T14:50:47.140Z,10.98
2023-02-11T14:54:15.341Z,11.10
2023-02-11T14:57:20.492Z,11.00
2023-02-11T15:00:23.326Z,11.43
2023-02-11T15:03:31.458Z,11.73
2023-02-11T15:06:37.504Z,11.93
2023-02-11T15:09:51.188Z,11.55
2023-02-11T15:12:54.278Z,12.63
2023-02-11T15:16:07.763Z,11.05
2023-02-11T15:19:21.323Z,12.57
2023-02-11T15:22:31.697Z,11.32
2023-02-11T15:25:34.493Z,12.07
2023-02-11T15:28:36.677Z,11.05
2023-02-11T15:31:39.460Z,13.30
2023-02-11T15:34:42.458Z,14.30
2023-02-11T15:37:45.558Z,13.10
2023-02-11T15:41:42.537Z,13.10
2023-02-11T15:45:31.415Z,14.15
2023-02-11T15:48:44.289Z,12.10
2023-02-11T15:51:47.402Z,15.00
2023-02-11T15:54:50.138Z,11.85
2023-02-11T15:57:58.423Z,15.00
2023-02-11T16:01:00.556Z,12.65
2023-02-11T16:04:04.224Z,14.68
2023-02-11T16:07:06.684Z,16.08
2023-02-11T16:10:29.489Z,17.05
2023-02-11T16:13:34.605Z,15.80
2023-02-11T16:16:38.690Z,16.60
2023-02-11T16:19:48.782Z,15.95
2023-02-11T16:22:51.266Z,16.17
2023-02-11T16:26:20.088Z,17.63
2023-02-11T16:29:27.826Z,20.33
2023-02-11T16:32:31.180Z,18.43
2023-02-11T16:35:33.171Z,17.15
2023-02-11T16:38:35.881Z,19.42
2023-02-11T16:41:37.910Z,19.85
2023-02-11T16:44:43.049Z,18.27
2023-02-11T16:47:46.321Z,18.63
2023-02-11T16:50:53.651Z,18.40
2023-02-11T16:53:55.934Z,17.65
2023-02-11T16:57:00.782Z,18.52
2023-02-11T17:00:02.753Z,19.27
2023-02-11T17:03:09.494Z,20.98
2023-02-11T17:06:13.703Z,20.35
2023-02-11T17:09:21.517Z,19.60
2023-02-11T17:12:25.558Z,20.90
2023-02-11T17:15:28.529Z,13.60
2023-02-11T17:18:30.751Z,15.10
2023-02-11T17:21:32.968Z,15.35
2023-02-11T17:24:35.153Z,15.23
2023-02-11T17:27:38.085Z,14.75
2023-02-11T17:30:43.645Z,15.57
2023-02-11T17:33:48.659Z,14.07
2023-02-11T17:36:52.276Z,15.45
2023-02-11T17:43:16.274Z,14.98
2023-02-11T17:46:18.950Z,17.08
2023-02-11T17:49:21.731Z,24.20
2023-02-11T17:52:26.606Z,24.42
2023-02-11T17:55:28.700Z,30.40
2023-02-11T17:58:34.915Z,27.70
2023-02-11T18:01:40.564Z,27.80
2023-02-11T18:04:42.729Z,30.17
2023-02-11T18:07:44.838Z,29.42
2023-02-11T18:10:47.873Z,30.50
2023-02-11T18:13:54.657Z,31.77
2023-02-11T18:17:17.899Z,33.17
2023-02-11T18:20:19.974Z,34.55
2023-02-11T18:23:26.790Z,35.53
2023-02-11T18:26:29.611Z,37.83
2023-02-11T18:29:31.624Z,35.17
2023-02-11T18:32:34.983Z,35.97
2023-02-11T18:35:41.297Z,35.00
2023-02-11T18:38:46.286Z,36.40
2023-02-11T18:41:48.524Z,36.28
2023-02-11T18:44:52.093Z,34.78
2023-02-11T18:47:54.905Z,33.58
2023-02-11T18:50:57.578Z,32.30
2023-02-11T18:54:01.826Z,32.38
2023-02-11T18:57:04.127Z,30.20
2023-02-11T19:00:10.604Z,32.03
2023-02-11T19:03:13.290Z,31.92
2023-02-11T19:06:21.818Z,33.70
2023-02-11T19:09:25.936Z,34.25
2023-02-11T19:12:28.017Z,32.50
2023-02-11T19:15:40.428Z,32.00
2023-02-11T19:18:42.673Z,34.92
2023-02-11T19:21:46.017Z,34.53
2023-02-11T19:24:48.063Z,37.05
2023-02-11T19:27:50.502Z,35.15
2023-02-11T19:30:54.571Z,37.60
2023-02-11T19:33:56.888Z,33.92
2023-02-11T19:37:01.802Z,35.55
2023-02-11T19:40:07.712Z,34.97
2023-02-11T19:43:10.116Z,35.25
2023-02-11T19:46:12.610Z,34.90
2023-02-11T19:49:19.686Z,33.60
2023-02-11T19:52:21.865Z,34.42
2023-02-11T19:55:24.674Z,38.25
2023-02-11T19:58:27.941Z,36.53
2023-02-11T20:01:30.193Z,35.05
2023-02-11T20:04:32.445Z,37.53
2023-02-11T20:07:39.617Z,34.97
2023-02-11T20:10:51.388Z,33.88
2023-02-11T20:13:53.621Z,32.10
2023-02-11T20:16:55.806Z,33.72
2023-02-11T20:19:58.097Z,32.83
2023-02-11T20:23:00.285Z,35.00
2023-02-11T20:26:09.926Z,35.15
2023-02-11T20:29:12.417Z,33.65
2023-02-11T20:32:14.967Z,35.42
2023-02-11T20:35:17.260Z,37.20
2023-02-11T20:38:19.426Z,36.60
2023-02-11T20:41:25.253Z,35.28
2023-02-11T20:44:27.743Z,36.50
2023-02-11T20:47:29.752Z,34.78
2023-02-11T20:50:33.444Z,35.28
2023-02-11T20:53:41.312Z,37.40
2023-02-11T20:56:45.555Z,37.45
2023-02-11T20:59:49.920Z,34.72
2023-02-11T21:02:53.664Z,34.17
2023-02-11T21:05:59.130Z,36.45
2023-02-11T21:09:01.382Z,35.50
2023-02-11T21:12:04.027Z,31.88
2023-02-11T21:15:08.502Z,31.55
2023-02-11T21:18:10.860Z,33.10
2023-02-11T21:21:13.407Z,33.50
2023-02-11T21:24:15.929Z,34.97
2023-02-11T21:27:18.057Z,32.15
2023-02-11T21:30:23.092Z,34.63
2023-02-11T21:33:26.718Z,33.42
2023-02-11T21:36:30.103Z,35.22
2023-02-11T21:39:32.175Z,36.63
2023-02-11T21:42:35.237Z,35.92
2023-02-11T21:45:43.881Z,36.97
2023-02-11T21:48:46.679Z,33.15
2023-02-11T21:51:48.693Z,32.53
2023-02-11T21:54:51.659Z,30.42
2023-02-11T21:57:53.921Z,31.27
2023-02-11T22:00:59.740Z,29.70
2023-02-11T22:04:01.941Z,30.38
2023-02-11T22:07:04.064Z,30.73
2023-02-11T22:10:06.493Z,32.85
2023-02-11T22:13:08.511Z,31.65
2023-02-11T22:16:13.810Z,31.40
2023-02-11T22:19:15.964Z,29.38
2023-02-11T22:22:20.261Z,28.77
2023-02-11T22:25:22.274Z,28.75
2023-02-11T22:28:26.130Z,27.02
2023-02-11T22:31:34.084Z,29.60
2023-02-11T22:34:37.875Z,27.30
2023-02-11T22:37:40.241Z,26.92
2023-02-11T22:40:43.821Z,29.85
2023-02-11T22:43:46.397Z,29.35
2023-02-11T22:46:48.937Z,29.15
2023-02-11T22:49:50.917Z,28.30
2023-02-11T22:52:53.078Z,25.38
2023-02-11T22:55:55.541Z,26.40
2023-02-11T22:59:00.634Z,24.55
2023-02-11T23:02:02.786Z,25.02
2023-02-11T23:05:04.926Z,24.77
2023-02-11T23:08:09.045Z,22.70
2023-02-11T23:11:14.564Z,22.70
2023-02-11T23:14:16.608Z,23.08
2023-02-11T23:17:19.806Z,22.38
2023-02-11T23:20:23.502Z,23.45
2023-02-11T23:23:25.646Z,20.27
2023-02-11T23:26:28.863Z,18.27
2023-02-11T23:29:30.827Z,17.55
2023-02-11T23:32:33.029Z,17.70
2023-02-11T23:35:35.510Z,16.17
2023-02-11T23:38:37.715Z,16.63
2023-02-11T23:41:40.184Z,15.98
2023-02-11T23:44:42.352Z,16.17
2023-02-11T23:47:45.849Z,15.90
2023-02-11T23:50:48.029Z,15.23
2023-02-11T23:53:50.610Z,16.45
2023-02-11T23:56:52.719Z,14.82
2023-02-11T23:59:55.096Z,16.05
